LOS ANGELES INTL

KLAX (LAX)
Los Angeles, California
Towered

Vatsim Metar:
KLAX 270353Z 23003KT 9SM OVC014 18/13 A3003 RMK AO2 SLP168 T01780133

LOS ANGELES INTL ATC

LAX_55_CTR - 135.550 - Tom Solon
"Socal approach" - serving departures and arrivals into and out of KSAN, KMYF, KNZY, KCRQ, KOCN, KMYF, KSDM
LAX_GND - 121.750 - Chris Schack
Los Angeles Ground Information GOLF Winds 230 at 3 Vis 9SM Sky OVC014 Alt 3003 Landing rwys 25R & 24L. Departing rwys 25L & 24R.

Traffic

Inbound:
Ident
Type
Name
ETA
Phase
UAL298
B721
Alexander Sulllivan KEWR
Boarding
UAL5854
A20N
Aadwait Dadwal VIDP
05:52 Z
Climb
DAL8317
B738
Mark Tucker KONT
Boarding
ASA1298
B738
Danny Tanner KMIA
05:07 Z
Cruse
ASA2956
A320
Jason Tate KRNO
05:15 Z
Cruse

Outbound:
Ident
Type
Name
Destination
Phase
AAL164
MD82
Tyler Saterelli I69
KSAN
Boarding
MOE1927
A20N
Choi BuSung ZSPD
KSAN
Taxiing Out
MOE927
A321
SoonHo Kwon RKSS
KSAN
Taxiing Out
CXA9256
B738
HanBin Yi ZSAM
EGKK
Boarding
KAL101
A20N
Seok bin seo RKSI
KSAN
Boarding
N912AG
M20P
Neil S KSEZ
KSAN
Boarding
JST501
A320
Peter Grouse YSSY
KSAN
Climb
DAL2425
A20N
Akhilesh Anand KSFO
KDEN
Climb
ANA899
B77W
Javier Arita KMIA
RJAA
Climb